createdAt,value
2018-06-30T00:00:57.279Z,1011.37
2018-06-30T00:01:57.357Z,1011.38
2018-06-30T00:02:57.223Z,1011.37
2018-06-30T00:03:57.220Z,1011.38
2018-06-30T00:04:57.165Z,1011.37
2018-06-30T00:05:57.157Z,1011.34
2018-06-30T00:06:57.170Z,1011.36
2018-06-30T00:07:57.146Z,1011.40
2018-06-30T00:08:57.090Z,1011.39
2018-06-30T00:09:57.056Z,1011.38
2018-06-30T00:10:57.064Z,1011.40
2018-06-30T00:11:57.008Z,1011.39
2018-06-30T00:12:56.982Z,1011.41
2018-06-30T00:13:56.956Z,1011.35
2018-06-30T00:14:56.933Z,1011.35
2018-06-30T00:15:56.909Z,1011.36
2018-06-30T00:16:56.880Z,1011.34
2018-06-30T00:17:56.863Z,1011.34
2018-06-30T00:18:56.845Z,1011.33
2018-06-30T00:19:56.826Z,1011.32
2018-06-30T00:20:56.835Z,1011.33
2018-06-30T00:21:56.761Z,1011.33
2018-06-30T00:22:56.779Z,1011.34
2018-06-30T00:23:56.747Z,1011.31
2018-06-30T00:24:56.729Z,1011.32
2018-06-30T00:25:56.677Z,1011.32
2018-06-30T00:26:56.650Z,1011.31
2018-06-30T00:27:56.638Z,1011.34
2018-06-30T00:28:56.601Z,1011.35
2018-06-30T00:29:56.572Z,1011.34
2018-06-30T00:30:56.564Z,1011.37
2018-06-30T00:31:56.527Z,1011.38
2018-06-30T00:32:58.037Z,1011.37
2018-06-30T00:33:56.477Z,1011.32
2018-06-30T00:34:56.462Z,1011.31
2018-06-30T00:35:56.426Z,1011.32
2018-06-30T00:36:56.402Z,1011.32
2018-06-30T00:37:56.386Z,1011.32
2018-06-30T00:38:56.361Z,1011.26
2018-06-30T00:39:56.334Z,1011.32
2018-06-30T00:40:56.328Z,1011.34
2018-06-30T00:41:56.279Z,1011.33
2018-06-30T00:42:56.270Z,1011.32
2018-06-30T00:43:56.281Z,1011.32
2018-06-30T00:44:56.223Z,1011.35
2018-06-30T00:45:56.197Z,1011.34
2018-06-30T00:46:56.195Z,1011.32
2018-06-30T00:47:56.142Z,1011.29
2018-06-30T00:48:56.114Z,1011.33
2018-06-30T00:49:56.094Z,1011.30
2018-06-30T00:50:56.073Z,1011.30
2018-06-30T00:51:56.046Z,1011.33
2018-06-30T00:52:56.030Z,1011.34
2018-06-30T00:53:55.991Z,1011.32
2018-06-30T00:54:58.556Z,1011.29
2018-06-30T00:55:55.946Z,1011.30
2018-06-30T00:56:56.044Z,1011.30
2018-06-30T00:57:55.916Z,1011.30
2018-06-30T00:58:55.887Z,1011.30
2018-06-30T00:59:55.849Z,1011.26
2018-06-30T01:00:55.857Z,1011.28
2018-06-30T01:01:55.797Z,1011.28
2018-06-30T01:02:55.781Z,1011.29
2018-06-30T01:03:55.775Z,1011.28
2018-06-30T01:04:55.732Z,1011.26
2018-06-30T01:05:55.702Z,1011.30
2018-06-30T01:06:55.682Z,1011.31
2018-06-30T01:08:14.799Z,1011.29
2018-06-30T01:10:00.249Z,1011.28
2018-06-30T01:11:00.443Z,1011.29
2018-06-30T01:13:04.887Z,1011.29
2018-06-30T01:14:04.844Z,1011.33
2018-06-30T01:16:08.070Z,1011.31
2018-06-30T01:17:08.063Z,1011.35
2018-06-30T01:19:15.185Z,1011.31
2018-06-30T01:20:14.940Z,1011.30
2018-06-30T01:22:16.673Z,1011.30
2018-06-30T01:23:15.545Z,1011.29
2018-06-30T01:25:20.104Z,1011.25
2018-06-30T01:26:19.594Z,1011.27
2018-06-30T01:28:30.427Z,1011.24
2018-06-30T01:29:30.281Z,1011.22
2018-06-30T01:30:30.062Z,1011.19
2018-06-30T01:31:30.524Z,1011.20
2018-06-30T01:32:30.146Z,1011.18
2018-06-30T01:33:30.184Z,1011.18
2018-06-30T01:34:30.009Z,1011.19
2018-06-30T01:35:29.909Z,1011.20
2018-06-30T01:36:30.395Z,1011.17
2018-06-30T01:37:30.913Z,1011.18
2018-06-30T01:38:29.697Z,1011.17
2018-06-30T01:39:29.647Z,1011.16
2018-06-30T01:40:29.606Z,1011.15
2018-06-30T01:41:29.602Z,1011.14
2018-06-30T01:42:29.565Z,1011.14
2018-06-30T01:43:29.540Z,1011.16
2018-06-30T01:44:29.511Z,1011.17
2018-06-30T01:45:29.485Z,1011.16
2018-06-30T01:46:29.460Z,1011.12
2018-06-30T01:47:29.436Z,1011.14
2018-06-30T01:48:29.406Z,1011.15
2018-06-30T01:49:29.409Z,1011.20
2018-06-30T01:50:29.422Z,1011.15
2018-06-30T01:51:29.338Z,1011.15
2018-06-30T01:52:29.319Z,1011.18
2018-06-30T01:53:29.300Z,1011.16
2018-06-30T01:54:29.278Z,1011.17
2018-06-30T01:55:29.237Z,1011.18
2018-06-30T01:56:29.215Z,1011.16
2018-06-30T01:57:29.199Z,1011.13
2018-06-30T01:58:29.173Z,1011.13
2018-06-30T01:59:29.141Z,1011.11
2018-06-30T02:00:29.121Z,1011.13
2018-06-30T02:01:29.118Z,1011.12
2018-06-30T02:02:29.064Z,1011.13
2018-06-30T02:03:29.034Z,1011.10
2018-06-30T02:04:29.013Z,1011.11
2018-06-30T02:05:28.994Z,1011.09
2018-06-30T02:06:28.969Z,1011.11
2018-06-30T02:07:28.957Z,1011.15
2018-06-30T02:08:28.946Z,1011.12
2018-06-30T02:09:28.889Z,1011.11
2018-06-30T02:10:28.970Z,1011.10
2018-06-30T02:11:28.843Z,1011.09
2018-06-30T02:12:28.818Z,1011.09
2018-06-30T02:13:28.800Z,1011.07
2018-06-30T02:14:28.763Z,1011.08
2018-06-30T02:15:28.748Z,1011.05
2018-06-30T02:16:28.757Z,1011.07
2018-06-30T02:17:28.756Z,1011.00
2018-06-30T02:18:28.672Z,1011.00
2018-06-30T02:19:28.743Z,1010.92
2018-06-30T02:20:28.639Z,1010.94
2018-06-30T02:21:28.613Z,1010.93
2018-06-30T02:22:28.571Z,1010.92
2018-06-30T02:23:28.549Z,1010.93
2018-06-30T02:24:28.568Z,1010.89
2018-06-30T02:25:28.497Z,1010.89
2018-06-30T02:26:28.591Z,1010.94
2018-06-30T02:27:28.442Z,1010.94
2018-06-30T02:28:28.417Z,1010.91
2018-06-30T02:29:28.397Z,1010.95
2018-06-30T02:30:28.373Z,1010.99
2018-06-30T02:31:28.345Z,1010.94
2018-06-30T02:32:28.321Z,1010.94
2018-06-30T02:33:28.289Z,1010.96
2018-06-30T02:34:28.266Z,1010.96
2018-06-30T02:35:28.258Z,1010.98
2018-06-30T02:36:28.228Z,1010.96
2018-06-30T02:37:28.197Z,1010.96
2018-06-30T02:38:28.172Z,1010.95
2018-06-30T02:39:28.143Z,1010.95
2018-06-30T02:40:28.114Z,1010.95
2018-06-30T02:41:28.094Z,1010.97
2018-06-30T02:42:28.076Z,1010.96
2018-06-30T02:43:28.043Z,1010.94
2018-06-30T02:44:28.018Z,1010.91
2018-06-30T02:45:28.000Z,1010.93
2018-06-30T02:46:27.970Z,1010.94
2018-06-30T02:47:27.985Z,1010.92
2018-06-30T02:48:27.927Z,1010.93
2018-06-30T02:49:27.888Z,1010.90
2018-06-30T02:50:27.875Z,1010.94
2018-06-30T02:51:27.843Z,1010.91
2018-06-30T02:52:27.841Z,1010.93
2018-06-30T02:53:27.799Z,1010.96
2018-06-30T02:54:27.777Z,1010.95
2018-06-30T02:55:27.759Z,1010.96
2018-06-30T02:56:27.724Z,1010.95
2018-06-30T02:57:27.696Z,1010.94
2018-06-30T02:58:27.673Z,1010.92
2018-06-30T02:59:27.646Z,1010.96
2018-06-30T03:00:27.697Z,1010.95
2018-06-30T03:01:27.591Z,1010.92
2018-06-30T03:02:27.631Z,1010.93
2018-06-30T03:03:27.583Z,1010.93
2018-06-30T03:04:27.571Z,1010.93
2018-06-30T03:05:27.510Z,1010.94
2018-06-30T03:06:27.519Z,1010.92
2018-06-30T03:07:27.497Z,1010.97
2018-06-30T03:09:06.904Z,1010.91
2018-06-30T03:10:35.969Z,1010.91
2018-06-30T03:11:35.666Z,1010.91
2018-06-30T03:13:41.287Z,1010.94
2018-06-30T03:14:41.142Z,1010.93
2018-06-30T03:16:47.030Z,1010.94
2018-06-30T03:17:47.043Z,1010.97
2018-06-30T03:19:52.855Z,1010.96
2018-06-30T03:20:52.873Z,1010.97
2018-06-30T03:21:53.120Z,1010.95
2018-06-30T03:22:53.707Z,1010.94
2018-06-30T03:23:53.178Z,1010.92
2018-06-30T03:24:52.645Z,1010.93
2018-06-30T03:25:52.627Z,1010.97
2018-06-30T03:26:52.588Z,1010.95
2018-06-30T03:27:52.575Z,1010.97
2018-06-30T03:28:52.543Z,1010.97
2018-06-30T03:29:52.515Z,1010.97
2018-06-30T03:30:52.500Z,1010.94
2018-06-30T03:31:52.472Z,1010.93
2018-06-30T03:32:52.439Z,1010.92
2018-06-30T03:33:52.417Z,1010.90
2018-06-30T03:34:52.386Z,1010.91
2018-06-30T03:35:52.359Z,1010.94
2018-06-30T03:36:52.344Z,1010.95
2018-06-30T03:37:52.324Z,1010.96
2018-06-30T03:38:52.301Z,1010.92
2018-06-30T03:39:52.280Z,1010.94
2018-06-30T03:40:52.237Z,1010.96
2018-06-30T03:41:52.214Z,1010.94
2018-06-30T03:42:52.197Z,1010.91
2018-06-30T03:43:52.166Z,1010.89
2018-06-30T03:44:52.142Z,1010.90
2018-06-30T03:45:52.106Z,1010.85
2018-06-30T03:46:52.106Z,1010.89
2018-06-30T03:47:52.060Z,1010.88
2018-06-30T03:48:52.045Z,1010.85
2018-06-30T03:49:52.030Z,1010.85
2018-06-30T03:50:51.992Z,1010.84
2018-06-30T03:51:51.962Z,1010.84
2018-06-30T03:52:51.969Z,1010.87
2018-06-30T03:53:51.909Z,1010.87
2018-06-30T03:54:51.879Z,1010.87
2018-06-30T03:55:51.863Z,1010.86
2018-06-30T03:56:51.836Z,1010.84
2018-06-30T03:57:51.805Z,1010.88
2018-06-30T03:58:51.776Z,1010.89
2018-06-30T03:59:51.763Z,1010.91
2018-06-30T04:00:51.732Z,1010.91
2018-06-30T04:01:51.702Z,1010.89
2018-06-30T04:02:51.685Z,1010.93
2018-06-30T04:03:51.656Z,1010.93
2018-06-30T04:04:51.639Z,1010.93
2018-06-30T04:05:51.621Z,1010.93
2018-06-30T04:06:51.572Z,1010.92
2018-06-30T04:07:51.548Z,1010.95
2018-06-30T04:09:08.738Z,1010.95
2018-06-30T04:10:55.982Z,1010.94
2018-06-30T04:11:56.641Z,1010.93
2018-06-30T04:14:00.948Z,1010.92
2018-06-30T04:15:00.607Z,1010.95
2018-06-30T04:17:11.133Z,1010.95
2018-06-30T04:18:11.320Z,1010.93
2018-06-30T04:20:17.456Z,1010.97
2018-06-30T04:21:17.388Z,1010.93
2018-06-30T04:23:23.866Z,1010.95
2018-06-30T04:24:24.332Z,1010.92
2018-06-30T04:26:27.325Z,1010.95
2018-06-30T04:27:27.739Z,1010.93
2018-06-30T04:29:31.608Z,1010.94
2018-06-30T04:30:30.672Z,1010.94
2018-06-30T04:32:40.614Z,1011.00
2018-06-30T04:33:40.627Z,1010.98
2018-06-30T04:35:42.420Z,1010.97
2018-06-30T04:36:42.634Z,1010.96
2018-06-30T04:38:43.617Z,1010.98
2018-06-30T04:39:43.316Z,1011.01
2018-06-30T04:41:46.702Z,1011.05
2018-06-30T04:42:46.406Z,1011.03
2018-06-30T04:44:50.416Z,1011.11
2018-06-30T04:45:50.498Z,1011.09
2018-06-30T04:49:32.856Z,1011.15
2018-06-30T04:50:32.783Z,1011.11
2018-06-30T04:52:43.689Z,1011.16
2018-06-30T04:53:43.660Z,1011.17
2018-06-30T04:55:46.781Z,1011.16
2018-06-30T04:56:46.605Z,1011.16
2018-06-30T04:58:54.227Z,1011.15
2018-06-30T04:59:54.210Z,1011.16
2018-06-30T05:01:47.383Z,1011.16
2018-06-30T05:02:47.681Z,1011.14
2018-06-30T05:04:49.221Z,1011.17
2018-06-30T05:05:49.709Z,1011.20
2018-06-30T05:06:49.637Z,1011.17
2018-06-30T05:07:49.557Z,1011.18
2018-06-30T05:08:48.851Z,1011.16
2018-06-30T05:09:48.807Z,1011.15
2018-06-30T05:10:48.759Z,1011.12
2018-06-30T05:11:48.739Z,1011.11
2018-06-30T05:12:48.789Z,1011.13
2018-06-30T05:13:48.686Z,1011.14
2018-06-30T05:14:48.661Z,1011.11
2018-06-30T05:15:48.647Z,1011.11
2018-06-30T05:16:48.616Z,1011.12
2018-06-30T05:17:48.649Z,1011.11
2018-06-30T05:18:48.569Z,1011.10
2018-06-30T05:19:48.562Z,1011.15
2018-06-30T05:20:48.521Z,1011.14
2018-06-30T05:21:48.487Z,1011.14
2018-06-30T05:22:48.455Z,1011.14
2018-06-30T05:23:48.447Z,1011.12
2018-06-30T05:24:48.406Z,1011.10
2018-06-30T05:25:48.426Z,1011.10
2018-06-30T05:26:48.420Z,1011.12
2018-06-30T05:27:48.342Z,1011.12
2018-06-30T05:28:48.340Z,1011.11
2018-06-30T05:29:48.285Z,1011.15
2018-06-30T05:30:48.255Z,1011.15
2018-06-30T05:31:48.240Z,1011.14
2018-06-30T05:32:48.235Z,1011.18
2018-06-30T05:33:48.185Z,1011.14
2018-06-30T05:34:48.160Z,1011.13
2018-06-30T05:35:48.171Z,1011.14
2018-06-30T05:36:48.107Z,1011.16
2018-06-30T05:37:48.084Z,1011.16
2018-06-30T05:38:48.085Z,1011.09
2018-06-30T05:39:48.039Z,1011.14
2018-06-30T05:40:48.016Z,1011.07
2018-06-30T05:41:48.034Z,1011.12
2018-06-30T05:42:47.962Z,1011.10
2018-06-30T05:43:47.930Z,1011.05
2018-06-30T05:44:47.908Z,1011.06
2018-06-30T05:45:47.892Z,1011.03
2018-06-30T05:47:07.039Z,1010.99
2018-06-30T05:48:44.360Z,1011.01
2018-06-30T05:49:43.799Z,1011.01
2018-06-30T05:51:49.597Z,1011.01
2018-06-30T05:52:49.681Z,1011.05
2018-06-30T05:54:52.822Z,1011.01
2018-06-30T05:55:52.907Z,1011.03
2018-06-30T05:57:55.896Z,1010.97
2018-06-30T05:58:55.733Z,1011.01
2018-06-30T06:00:56.876Z,1011.01
2018-06-30T06:01:56.752Z,1010.98
2018-06-30T06:04:02.884Z,1011.00
2018-06-30T06:05:03.123Z,1010.99
2018-06-30T06:07:07.545Z,1010.99
2018-06-30T06:08:07.414Z,1010.99
2018-06-30T06:09:07.392Z,1010.95
2018-06-30T06:10:07.472Z,1010.94
2018-06-30T06:11:07.737Z,1010.94
2018-06-30T06:12:07.897Z,1010.96
2018-06-30T06:13:07.820Z,1010.95
2018-06-30T06:14:08.237Z,1010.95
2018-06-30T06:15:08.199Z,1010.97
2018-06-30T06:16:07.611Z,1010.95
2018-06-30T06:17:07.136Z,1010.96
2018-06-30T06:18:07.113Z,1010.94
2018-06-30T06:19:07.093Z,1010.92
2018-06-30T06:20:07.059Z,1010.92
2018-06-30T06:21:07.079Z,1010.94
2018-06-30T06:22:07.045Z,1010.92
2018-06-30T06:23:06.983Z,1010.92
2018-06-30T06:24:06.970Z,1010.93
2018-06-30T06:25:06.942Z,1010.97
2018-06-30T06:26:06.927Z,1010.94
2018-06-30T06:27:06.891Z,1010.94
2018-06-30T06:28:06.872Z,1010.94
2018-06-30T06:29:06.837Z,1010.94
2018-06-30T06:30:06.819Z,1010.99
2018-06-30T06:31:06.803Z,1010.94
2018-06-30T06:32:06.786Z,1010.99
2018-06-30T06:33:06.740Z,1010.96
2018-06-30T06:34:06.716Z,1011.01
2018-06-30T06:35:06.737Z,1011.02
2018-06-30T06:36:06.672Z,1011.01
2018-06-30T06:37:06.652Z,1010.99
2018-06-30T06:38:06.636Z,1010.99
2018-06-30T06:39:06.600Z,1011.03
2018-06-30T06:40:06.635Z,1011.02
2018-06-30T06:41:06.546Z,1011.03
2018-06-30T06:42:06.545Z,1011.05
2018-06-30T06:43:06.500Z,1011.02
2018-06-30T06:44:06.478Z,1011.03
2018-06-30T06:45:06.461Z,1011.03
2018-06-30T06:46:06.431Z,1011.05
2018-06-30T06:47:06.400Z,1011.02
2018-06-30T06:48:06.386Z,1011.00
2018-06-30T06:49:06.361Z,1011.02
2018-06-30T06:50:06.336Z,1010.98
2018-06-30T06:51:06.372Z,1011.01
2018-06-30T06:52:06.327Z,1011.00
2018-06-30T06:53:06.316Z,1011.01
2018-06-30T06:54:06.243Z,1011.01
2018-06-30T06:55:06.288Z,1011.02
2018-06-30T06:56:06.188Z,1011.01
2018-06-30T06:57:06.161Z,1011.02
2018-06-30T06:58:06.144Z,1011.02
2018-06-30T06:59:06.115Z,1011.03
2018-06-30T07:00:06.100Z,1011.03
2018-06-30T07:01:06.083Z,1011.01
2018-06-30T07:02:06.072Z,1011.02
2018-06-30T07:03:06.159Z,1010.96
2018-06-30T07:04:06.008Z,1010.99
2018-06-30T07:05:05.985Z,1010.97
2018-06-30T07:06:05.962Z,1010.97
2018-06-30T07:07:07.754Z,1010.96
2018-06-30T07:08:05.943Z,1010.95
2018-06-30T07:09:05.881Z,1010.97
2018-06-30T07:10:05.864Z,1010.98
2018-06-30T07:11:05.836Z,1010.96
2018-06-30T07:12:05.873Z,1010.97
2018-06-30T07:13:05.799Z,1010.95
2018-06-30T07:14:05.779Z,1010.93
2018-06-30T07:15:05.801Z,1010.98
2018-06-30T07:16:05.714Z,1010.94
2018-06-30T07:17:05.871Z,1010.96
2018-06-30T07:18:05.681Z,1010.96
2018-06-30T07:19:05.692Z,1010.95
2018-06-30T07:20:05.625Z,1010.93
2018-06-30T07:21:05.613Z,1010.93
2018-06-30T07:22:05.714Z,1010.93
2018-06-30T07:23:05.651Z,1010.96
2018-06-30T07:24:05.539Z,1010.94
2018-06-30T07:25:05.513Z,1010.95
2018-06-30T07:26:05.488Z,1010.94
2018-06-30T07:27:05.470Z,1010.98
2018-06-30T07:28:05.444Z,1010.98
2018-06-30T07:29:05.439Z,1010.97
2018-06-30T07:30:27.061Z,1011.00
2018-06-30T07:32:05.189Z,1010.96
2018-06-30T07:33:03.539Z,1011.03
2018-06-30T07:35:06.813Z,1011.07
2018-06-30T07:36:06.723Z,1011.06
2018-06-30T07:37:06.652Z,1011.05
2018-06-30T07:38:06.974Z,1011.03
2018-06-30T07:39:06.930Z,1011.03
2018-06-30T07:40:07.014Z,1011.03
2018-06-30T07:41:06.983Z,1011.03
2018-06-30T07:42:07.315Z,1011.01
2018-06-30T07:43:07.076Z,1010.99
2018-06-30T07:44:06.483Z,1010.95
2018-06-30T07:45:23.425Z,1010.98
2018-06-30T07:47:09.428Z,1010.97
2018-06-30T07:48:08.984Z,1011.01
2018-06-30T07:49:09.568Z,1011.00
2018-06-30T07:50:09.598Z,1011.02
2018-06-30T07:51:08.825Z,1010.96
2018-06-30T07:52:08.850Z,1011.02
2018-06-30T07:53:08.815Z,1011.00
2018-06-30T07:54:09.364Z,1010.99
2018-06-30T07:55:08.741Z,1011.01
2018-06-30T07:56:08.728Z,1011.02
2018-06-30T07:57:08.725Z,1011.02
2018-06-30T07:58:08.680Z,1010.97
2018-06-30T07:59:08.653Z,1011.03
2018-06-30T08:00:08.628Z,1011.00
2018-06-30T08:01:08.600Z,1010.99
2018-06-30T08:02:08.616Z,1010.97
2018-06-30T08:03:08.561Z,1010.97
2018-06-30T08:04:08.538Z,1010.94
2018-06-30T08:05:08.512Z,1010.91
2018-06-30T08:06:08.711Z,1010.93
2018-06-30T08:07:08.514Z,1010.89
2018-06-30T08:08:08.542Z,1010.91
2018-06-30T08:09:08.431Z,1010.88
2018-06-30T08:10:08.402Z,1010.90
2018-06-30T08:11:08.378Z,1010.88
2018-06-30T08:12:08.354Z,1010.88
2018-06-30T08:13:08.340Z,1010.91
2018-06-30T08:14:08.328Z,1010.97
2018-06-30T08:15:08.328Z,1010.93
2018-06-30T08:16:08.261Z,1010.95
2018-06-30T08:17:08.237Z,1010.92
2018-06-30T08:18:08.216Z,1010.92
2018-06-30T08:19:08.193Z,1010.93
2018-06-30T08:20:08.218Z,1010.94
2018-06-30T08:21:08.229Z,1010.90
2018-06-30T08:22:08.132Z,1010.93
2018-06-30T08:23:08.108Z,1010.94
2018-06-30T08:24:08.093Z,1010.90
2018-06-30T08:25:08.060Z,1010.92
2018-06-30T08:26:08.032Z,1010.85
2018-06-30T08:27:08.047Z,1010.92
2018-06-30T08:28:08.008Z,1010.86
2018-06-30T08:29:07.974Z,1010.89
2018-06-30T08:30:07.963Z,1010.90
2018-06-30T08:31:07.926Z,1010.95
2018-06-30T08:32:07.910Z,1010.94
2018-06-30T08:33:07.890Z,1010.92
2018-06-30T08:34:07.866Z,1010.98
2018-06-30T08:35:07.864Z,1010.93
2018-06-30T08:36:07.825Z,1010.92
2018-06-30T08:38:58.060Z,1010.96
2018-06-30T08:39:57.902Z,1010.91
2018-06-30T08:42:04.780Z,1010.95
2018-06-30T08:43:04.808Z,1010.87
2018-06-30T08:45:09.457Z,1010.93
2018-06-30T08:46:09.301Z,1010.92
2018-06-30T08:48:13.681Z,1010.90
2018-06-30T08:49:13.673Z,1010.93
2018-06-30T08:51:17.037Z,1010.95
2018-06-30T08:52:17.136Z,1010.96
2018-06-30T08:54:17.276Z,1010.89
2018-06-30T08:55:16.122Z,1010.95
2018-06-30T08:57:17.632Z,1010.92
2018-06-30T08:58:17.450Z,1010.94
2018-06-30T09:00:33.306Z,1010.91
2018-06-30T09:01:33.294Z,1010.90
2018-06-30T09:03:39.332Z,1010.89
2018-06-30T09:04:39.137Z,1010.88
2018-06-30T09:06:40.074Z,1010.89
2018-06-30T09:07:40.104Z,1010.90
2018-06-30T09:08:40.075Z,1010.89
2018-06-30T09:09:39.805Z,1010.91
2018-06-30T09:10:39.439Z,1010.88
2018-06-30T09:11:39.297Z,1010.90
2018-06-30T09:12:39.301Z,1010.89
2018-06-30T09:13:39.282Z,1010.89
2018-06-30T09:14:39.326Z,1010.84
2018-06-30T09:15:39.394Z,1010.88
2018-06-30T09:16:39.910Z,1010.86
2018-06-30T09:17:39.953Z,1010.90
2018-06-30T09:18:40.168Z,1010.84
2018-06-30T09:19:39.752Z,1010.88
2018-06-30T09:20:39.616Z,1010.83
2018-06-30T09:21:39.172Z,1010.84
2018-06-30T09:22:39.076Z,1010.91
2018-06-30T09:23:39.060Z,1010.88
2018-06-30T09:24:39.041Z,1010.92
2018-06-30T09:25:39.088Z,1010.88
2018-06-30T09:26:38.996Z,1010.88
2018-06-30T09:27:38.968Z,1010.90
2018-06-30T09:28:38.965Z,1010.84
2018-06-30T09:29:38.967Z,1010.88
2018-06-30T09:30:38.915Z,1010.79
2018-06-30T09:31:39.412Z,1010.84
2018-06-30T09:32:38.895Z,1010.87
2018-06-30T09:33:38.838Z,1010.84
2018-06-30T09:34:38.849Z,1010.83
2018-06-30T09:35:38.814Z,1010.85
2018-06-30T09:36:38.815Z,1010.86
2018-06-30T09:37:38.803Z,1010.85
2018-06-30T09:38:38.765Z,1010.93
2018-06-30T09:39:38.728Z,1010.89
2018-06-30T09:40:38.702Z,1010.89
2018-06-30T09:41:38.684Z,1010.85
2018-06-30T09:42:38.656Z,1010.85
2018-06-30T09:43:38.647Z,1010.85
2018-06-30T09:44:38.637Z,1010.79
2018-06-30T09:45:38.596Z,1010.82
2018-06-30T09:46:38.714Z,1010.82
2018-06-30T09:47:38.561Z,1010.84
2018-06-30T09:48:38.528Z,1010.83
2018-06-30T09:49:38.518Z,1010.84
2018-06-30T09:50:38.495Z,1010.81
2018-06-30T09:51:38.570Z,1010.84
2018-06-30T09:52:38.451Z,1010.83
2018-06-30T09:53:38.455Z,1010.84
2018-06-30T09:54:38.421Z,1010.79
2018-06-30T09:55:38.424Z,1010.85
2018-06-30T09:56:38.450Z,1010.81
2018-06-30T09:57:38.359Z,1010.81
2018-06-30T09:58:38.339Z,1010.87
2018-06-30T09:59:38.314Z,1010.87
2018-06-30T10:00:38.314Z,1010.82
2018-06-30T10:01:38.278Z,1010.82
2018-06-30T10:02:38.265Z,1010.83
2018-06-30T10:03:38.239Z,1010.81
2018-06-30T10:04:38.285Z,1010.80
2018-06-30T10:05:38.208Z,1010.78
2018-06-30T10:06:38.187Z,1010.79
2018-06-30T10:07:38.163Z,1010.76
2018-06-30T10:08:38.143Z,1010.74
2018-06-30T10:09:38.118Z,1010.75
2018-06-30T10:10:38.113Z,1010.78
2018-06-30T10:11:38.083Z,1010.76
2018-06-30T10:12:38.136Z,1010.79
2018-06-30T10:13:38.043Z,1010.74
2018-06-30T10:14:38.033Z,1010.76
2018-06-30T10:15:38.026Z,1010.75
2018-06-30T10:16:37.988Z,1010.74
2018-06-30T10:17:37.991Z,1010.78
2018-06-30T10:18:37.937Z,1010.74
2018-06-30T10:19:37.916Z,1010.67
2018-06-30T10:20:37.900Z,1010.71
2018-06-30T10:21:37.894Z,1010.72
2018-06-30T10:22:37.858Z,1010.75
2018-06-30T10:23:37.839Z,1010.72
2018-06-30T10:24:37.824Z,1010.74
2018-06-30T10:25:37.849Z,1010.69
2018-06-30T10:26:37.787Z,1010.75
2018-06-30T10:27:37.793Z,1010.76
2018-06-30T10:28:37.754Z,1010.73
2018-06-30T10:29:37.771Z,1010.76
2018-06-30T10:30:37.707Z,1010.71
2018-06-30T10:31:37.683Z,1010.78
2018-06-30T10:32:37.720Z,1010.78
2018-06-30T10:33:37.772Z,1010.77
2018-06-30T10:34:37.629Z,1010.81
2018-06-30T10:35:37.607Z,1010.76
2018-06-30T10:36:37.603Z,1010.76
2018-06-30T10:37:37.635Z,1010.69
2018-06-30T10:38:37.554Z,1010.75
2018-06-30T10:39:37.534Z,1010.72
2018-06-30T10:40:37.521Z,1010.73
2018-06-30T10:41:37.505Z,1010.75
2018-06-30T10:42:37.473Z,1010.73
2018-06-30T10:43:37.485Z,1010.65
2018-06-30T10:44:37.545Z,1010.68
2018-06-30T10:45:37.426Z,1010.73
2018-06-30T10:46:37.403Z,1010.62
2018-06-30T10:47:37.814Z,1010.65
2018-06-30T10:48:37.462Z,1010.70
2018-06-30T10:49:37.335Z,1010.67
2018-06-30T10:50:37.332Z,1010.65
2018-06-30T10:51:37.331Z,1010.61
2018-06-30T10:52:37.342Z,1010.68
2018-06-30T10:53:37.270Z,1010.58
2018-06-30T10:54:37.252Z,1010.64
2018-06-30T10:55:37.230Z,1010.68
2018-06-30T10:56:37.255Z,1010.68
2018-06-30T10:57:37.195Z,1010.70
2018-06-30T10:58:37.172Z,1010.65
2018-06-30T10:59:37.153Z,1010.67
2018-06-30T11:00:37.287Z,1010.67
2018-06-30T11:01:37.162Z,1010.65
2018-06-30T11:02:37.116Z,1010.60
2018-06-30T11:03:37.084Z,1010.58
2018-06-30T11:04:37.118Z,1010.59
2018-06-30T11:05:37.043Z,1010.55
2018-06-30T11:06:37.027Z,1010.58
2018-06-30T11:07:37.005Z,1010.57
2018-06-30T11:08:36.999Z,1010.56
2018-06-30T11:09:37.054Z,1010.61
2018-06-30T11:10:36.961Z,1010.61
2018-06-30T11:11:36.939Z,1010.62
2018-06-30T11:12:37.037Z,1010.61
2018-06-30T11:13:36.889Z,1010.59
2018-06-30T11:14:36.874Z,1010.57
2018-06-30T11:15:36.859Z,1010.55
2018-06-30T11:16:36.894Z,1010.60
2018-06-30T11:17:36.828Z,1010.60
2018-06-30T11:18:36.808Z,1010.57
2018-06-30T11:19:36.789Z,1010.58
2018-06-30T11:20:36.770Z,1010.58
2018-06-30T11:23:19.427Z,1010.56
2018-06-30T11:24:41.292Z,1010.61
2018-06-30T11:25:20.169Z,1010.63
2018-06-30T11:26:20.781Z,1010.59
2018-06-30T11:27:19.428Z,1010.58
2018-06-30T11:28:19.274Z,1010.56
2018-06-30T11:29:19.289Z,1010.56
2018-06-30T11:30:20.090Z,1010.58
2018-06-30T11:31:19.801Z,1010.54
2018-06-30T11:32:19.117Z,1010.54
2018-06-30T11:33:19.104Z,1010.51
2018-06-30T11:34:19.081Z,1010.46
2018-06-30T11:35:19.089Z,1010.51
2018-06-30T11:36:19.052Z,1010.52
2018-06-30T11:37:19.029Z,1010.45
2018-06-30T11:38:19.082Z,1010.51
2018-06-30T11:39:18.986Z,1010.49
2018-06-30T11:40:18.997Z,1010.53
2018-06-30T11:41:18.968Z,1010.54
2018-06-30T11:42:18.935Z,1010.55
2018-06-30T11:43:18.953Z,1010.50
2018-06-30T11:44:18.915Z,1010.52
2018-06-30T11:45:18.879Z,1010.48
2018-06-30T11:46:18.893Z,1010.49
2018-06-30T11:47:18.854Z,1010.44
2018-06-30T11:48:18.836Z,1010.46
2018-06-30T11:49:18.829Z,1010.46
2018-06-30T11:50:18.984Z,1010.52
2018-06-30T11:51:18.789Z,1010.50
2018-06-30T11:52:18.888Z,1010.46
2018-06-30T11:53:18.784Z,1010.50
2018-06-30T11:54:18.736Z,1010.53
2018-06-30T11:55:18.725Z,1010.54
2018-06-30T11:56:18.721Z,1010.49
2018-06-30T11:57:18.702Z,1010.49
2018-06-30T11:58:18.808Z,1010.51
2018-06-30T11:59:18.777Z,1010.51
2018-06-30T12:00:18.642Z,1010.45
2018-06-30T12:01:18.640Z,1010.47
2018-06-30T12:02:18.671Z,1010.45
2018-06-30T12:03:18.602Z,1010.38
2018-06-30T12:04:18.584Z,1010.42
2018-06-30T12:05:18.579Z,1010.38
2018-06-30T12:06:18.574Z,1010.43
2018-06-30T12:07:18.565Z,1010.47
2018-06-30T12:08:18.538Z,1010.43
2018-06-30T12:09:18.583Z,1010.48
2018-06-30T12:10:18.508Z,1010.45
2018-06-30T12:11:18.504Z,1010.47
2018-06-30T12:12:18.503Z,1010.43
2018-06-30T12:13:18.459Z,1010.44
2018-06-30T12:14:18.476Z,1010.40
2018-06-30T12:15:18.441Z,1010.39
2018-06-30T12:16:18.435Z,1010.42
2018-06-30T12:17:18.446Z,1010.37
2018-06-30T12:18:18.393Z,1010.37
2018-06-30T12:19:18.464Z,1010.44
2018-06-30T12:20:18.371Z,1010.40
2018-06-30T12:21:18.371Z,1010.35
2018-06-30T12:22:18.388Z,1010.42
2018-06-30T12:23:18.329Z,1010.42
2018-06-30T12:24:18.632Z,1010.37
2018-06-30T12:25:18.303Z,1010.39
2018-06-30T12:26:18.328Z,1010.39
2018-06-30T12:27:18.626Z,1010.40
2018-06-30T12:28:18.266Z,1010.33
2018-06-30T12:29:20.629Z,1010.33
2018-06-30T12:30:18.312Z,1010.34
2018-06-30T12:31:18.253Z,1010.33
2018-06-30T12:32:18.328Z,1010.42
2018-06-30T12:33:18.339Z,1010.39
2018-06-30T12:34:18.292Z,1010.38
2018-06-30T12:35:18.380Z,1010.39
2018-06-30T12:36:18.292Z,1010.38
2018-06-30T12:37:18.218Z,1010.37
2018-06-30T12:38:18.152Z,1010.31
2018-06-30T12:39:18.136Z,1010.34
2018-06-30T12:40:18.141Z,1010.30
2018-06-30T12:41:18.112Z,1010.33
2018-06-30T12:42:18.123Z,1010.31
2018-06-30T12:43:18.149Z,1010.35
2018-06-30T12:44:18.096Z,1010.32
2018-06-30T12:45:18.060Z,1010.31
2018-06-30T12:46:18.579Z,1010.32
2018-06-30T12:47:18.071Z,1010.33
2018-06-30T12:48:19.089Z,1010.37
2018-06-30T12:49:18.012Z,1010.28
2018-06-30T12:50:18.004Z,1010.28
2018-06-30T12:51:18.021Z,1010.37
2018-06-30T12:52:17.991Z,1010.34
2018-06-30T12:53:17.998Z,1010.26
2018-06-30T12:54:18.102Z,1010.24
2018-06-30T12:55:17.961Z,1010.26
2018-06-30T12:56:18.236Z,1010.29
2018-06-30T12:57:18.036Z,1010.25
2018-06-30T12:58:17.911Z,1010.24
2018-06-30T12:59:17.988Z,1010.27
2018-06-30T13:00:17.940Z,1010.25
2018-06-30T13:01:17.929Z,1010.29
2018-06-30T13:02:17.872Z,1010.28